Time;durP1;ratioP1;P1;durP2;ratioP2;P2;SDS_P1;SDS_P2;PMS_P1;PMS_P2;Temp;Humidity;BMP_temperature;BMP_pressure;BME280_temperature;BME280_humidity;BME280_pressure;Samples;Min_cycle;Max_cycle;Signal;HPM_P1;HPM_P2
2023/03/25 00:00:20;;;;;;;5.90;1.80;;;9.80;99.90;;;;;;5093304;28;20052;-79
2023/03/25 00:02:48;;;;;;;7.18;1.88;;;10.00;99.90;;;;;;5093180;28;20545;-77
2023/03/25 00:05:16;;;;;;;6.80;1.98;;;9.40;99.90;;;;;;5093244;28;20113;-79
2023/03/25 00:07:43;;;;;;;4.70;1.80;;;9.40;99.90;;;;;;5093272;28;20097;-76
2023/03/25 00:10:10;;;;;;;4.38;1.85;;;9.40;99.90;;;;;;5093322;28;20040;-79
2023/03/25 00:12:37;;;;;;;7.68;2.40;;;9.40;99.90;;;;;;5093144;28;20105;-77
2023/03/25 00:15:04;;;;;;;5.63;2.45;;;9.40;99.90;;;;;;5092021;28;20442;-76
2023/03/25 00:17:30;;;;;;;7.97;2.50;;;9.40;99.90;;;;;;5093139;28;20507;-75
2023/03/25 00:20:09;;;;;;;6.03;1.80;;;9.60;99.90;;;;;;5091703;28;20050;-78
2023/03/25 00:22:39;;;;;;;10.40;2.50;;;9.30;99.90;;;;;;5093205;28;20052;-79
2023/03/25 00:25:09;;;;;;;6.90;2.47;;;9.30;99.90;;;;;;5092327;28;20373;-78
2023/03/25 00:27:35;;;;;;;9.13;2.63;;;9.30;99.90;;;;;;5092931;28;20075;-79
2023/03/25 00:30:01;;;;;;;6.57;2.75;;;9.30;99.90;;;;;;5093177;28;20074;-78
2023/03/25 00:32:28;;;;;;;9.20;2.40;;;9.60;99.90;;;;;;5092986;28;20040;-76
2023/03/25 00:34:54;;;;;;;10.13;2.97;;;9.20;99.90;;;;;;5096144;28;20055;-78
2023/03/25 00:37:20;;;;;;;6.45;2.50;;;9.40;99.90;;;;;;5095366;28;20044;-80
2023/03/25 00:39:46;;;;;;;6.85;2.83;;;9.20;99.90;;;;;;5096686;28;20134;-76
2023/03/25 00:42:16;;;;;;;5.82;3.05;;;9.20;99.90;;;;;;5096727;28;20042;-78
2023/03/25 00:44:41;;;;;;;11.70;3.50;;;9.50;99.90;;;;;;5096712;28;20050;-78
2023/03/25 00:47:07;;;;;;;5.97;3.33;;;9.20;99.90;;;;;;5096820;28;20387;-77
2023/03/25 00:49:33;;;;;;;9.85;3.15;;;9.20;99.90;;;;;;5096645;28;20060;-78
2023/03/25 00:51:58;;;;;;;8.60;3.30;;;9.80;99.90;;;;;;5096175;28;20500;-76
2023/03/25 00:54:24;;;;;;;9.68;4.20;;;9.20;99.90;;;;;;5096573;28;20044;-78
2023/03/25 00:56:51;;;;;;;11.00;3.50;;;9.20;99.90;;;;;;5096553;28;20123;-78
2023/03/25 00:59:17;;;;;;;7.78;3.67;;;9.20;99.90;;;;;;5096561;28;20088;-78
2023/03/25 01:01:44;;;;;;;7.95;3.72;;;9.20;99.90;;;;;;5094957;28;20083;-75
2023/03/25 01:04:11;;;;;;;8.55;3.45;;;9.20;99.90;;;;;;5096233;28;20048;-75
2023/03/25 01:06:50;;;;;;;10.07;3.20;;;9.20;99.90;;;;;;5096248;28;20468;-77
2023/03/25 01:09:17;;;;;;;8.18;3.47;;;9.20;99.90;;;;;;5096065;28;20044;-78
2023/03/25 01:11:44;;;;;;;6.60;3.63;;;9.20;99.90;;;;;;5096226;28;20044;-78
2023/03/25 01:14:12;;;;;;;;;;;9.20;99.90;;;;;;5096399;28;20396;-75
2023/03/25 01:16:38;;;;;;;7.90;3.13;;;9.10;99.90;;;;;;5095874;28;20421;-78
2023/03/25 01:19:04;;;;;;;7.18;3.28;;;9.10;99.90;;;;;;5095929;28;20089;-75
2023/03/25 01:21:33;;;;;;;9.55;3.15;;;9.10;99.90;;;;;;5094735;28;20040;-75
2023/03/25 01:23:58;;;;;;;7.60;3.17;;;9.30;99.90;;;;;;5095838;28;20105;-75
2023/03/25 01:26:24;;;;;;;7.28;3.08;;;9.10;99.90;;;;;;5095872;28;20048;-75
2023/03/25 01:28:49;;;;;;;9.50;2.70;;;9.10;99.90;;;;;;5095707;28;20369;-76
2023/03/25 01:31:15;;;;;;;6.95;2.67;;;9.60;99.90;;;;;;5096221;28;20055;-76
2023/03/25 01:33:41;;;;;;;8.85;2.97;;;9.10;99.90;;;;;;5095942;28;20063;-76
2023/03/25 01:36:08;;;;;;;8.60;3.00;;;9.10;99.90;;;;;;5095374;28;20397;-76
2023/03/25 01:38:35;;;;;;;6.55;2.40;;;9.10;99.90;;;;;;5095539;28;20048;-76
2023/03/25 01:41:03;;;;;;;7.18;2.88;;;9.10;99.90;;;;;;5095614;28;20054;-76
2023/03/25 01:43:28;;;;;;;10.43;3.03;;;9.10;99.90;;;;;;5094466;28;20047;-76
2023/03/25 01:45:54;;;;;;;10.18;3.17;;;9.10;99.90;;;;;;5094404;28;20047;-76
2023/03/25 01:48:39;;;;;;;7.38;2.40;;;9.10;99.90;;;;;;5095308;28;20051;-76
2023/03/25 01:51:10;;;;;;;6.47;2.60;;;9.60;99.90;;;;;;5095318;28;20051;-76
2023/03/25 01:53:36;;;;;;;5.55;2.67;;;9.20;99.90;;;;;;5094155;28;20039;-76
2023/03/25 01:56:06;;;;;;;5.20;2.42;;;9.10;99.90;;;;;;5095142;28;20091;-76
2023/03/25 01:58:34;;;;;;;10.15;2.28;;;9.00;99.90;;;;;;5095179;28;20043;-77
2023/03/25 02:01:02;;;;;;;5.50;2.45;;;9.00;99.90;;;;;;5095500;28;20040;-77
2023/03/25 02:03:30;;;;;;;12.55;2.70;;;9.00;99.90;;;;;;5095214;28;20047;-77
2023/03/25 02:06:11;;;;;;;9.70;2.22;;;9.00;99.90;;;;;;5094123;28;20437;-76
2023/03/25 02:08:40;;;;;;;5.80;2.25;;;9.00;99.90;;;;;;5095057;28;20433;-77
2023/03/25 02:11:07;;;;;;;8.30;2.30;;;8.80;99.90;;;;;;5094971;28;20094;-77
2023/03/25 02:13:35;;;;;;;12.45;2.67;;;8.80;99.90;;;;;;5094835;28;20444;-76
2023/03/25 02:16:01;;;;;;;6.15;1.98;;;8.80;99.90;;;;;;5094852;28;20051;-76
2023/03/25 02:18:42;;;;;;;6.95;2.25;;;9.40;99.90;;;;;;5094862;28;20044;-76
2023/03/25 02:21:29;;;;;;;6.40;2.10;;;8.70;99.90;;;;;;5094779;28;20081;-76
2023/03/25 02:24:20;;;;;;;9.15;2.53;;;8.70;99.90;;;;;;5094630;28;20052;-76
2023/03/25 02:27:25;;;;;;;10.65;2.20;;;8.70;99.90;;;;;;5094867;28;20051;-76
2023/03/25 02:30:30;;;;;;;15.25;2.65;;;8.60;99.90;;;;;;5094610;28;20513;-77
2023/03/25 02:33:01;;;;;;;7.90;2.47;;;8.60;99.90;;;;;;5094695;28;20089;-76
2023/03/25 02:36:02;;;;;;;10.05;2.78;;;8.50;99.90;;;;;;5094458;28;20053;-77
2023/03/25 02:38:35;;;;;;;10.82;2.40;;;8.80;99.90;;;;;;5031770;28;20053;-78
2023/03/25 02:41:18;;;;;;;14.45;2.55;;;8.40;99.90;;;;;;5084587;28;20048;-77
2023/03/25 02:43:52;;;;;;;11.90;2.58;;;8.40;99.90;;;;;;5094368;28;20036;-75
2023/03/25 02:46:18;;;;;;;8.70;2.20;;;8.40;99.90;;;;;;5094385;28;20043;-75
2023/03/25 02:49:01;;;;;;;10.20;2.73;;;8.30;99.90;;;;;;5094113;28;20056;-75
2023/03/25 02:51:42;;;;;;;11.13;3.53;;;8.30;99.90;;;;;;5094326;28;20728;-75
2023/03/25 02:54:12;;;;;;;12.68;2.65;;;8.30;99.90;;;;;;5094226;28;20058;-76
2023/03/25 02:56:43;;;;;;;15.68;3.28;;;8.90;99.90;;;;;;5092628;28;20499;-75
2023/03/25 02:59:13;;;;;;;15.05;2.83;;;8.30;99.90;;;;;;5094140;28;20048;-76
2023/03/25 03:01:39;;;;;;;13.00;2.90;;;8.80;99.90;;;;;;5094354;28;20105;-76
2023/03/25 03:04:06;;;;;;;10.85;2.63;;;8.30;99.90;;;;;;5093838;28;20047;-75
2023/03/25 03:06:37;;;;;;;8.60;2.10;;;8.30;99.90;;;;;;5094094;28;20126;-76
2023/03/25 03:09:24;;;;;;;10.73;2.70;;;8.50;99.90;;;;;;5092689;28;20048;-76
2023/03/25 03:12:25;;;;;;;13.82;3.00;;;8.20;99.90;;;;;;5093510;28;20054;-77
2023/03/25 03:14:53;;;;;;;11.38;2.85;;;8.20;99.90;;;;;;5093884;28;20070;-77
2023/03/25 03:17:32;;;;;;;16.27;2.72;;;8.20;99.90;;;;;;5093906;28;20054;-77
2023/03/25 03:20:31;;;;;;;8.43;2.70;;;8.20;99.90;;;;;;5093821;28;20098;-77
2023/03/25 03:23:13;;;;;;;12.43;2.75;;;8.20;99.90;;;;;;5093987;28;20040;-77
2023/03/25 03:26:08;;;;;;;9.07;3.70;;;8.20;99.90;;;;;;5093841;28;20050;-77
2023/03/25 03:29:02;;;;;;;10.43;2.65;;;8.20;99.90;;;;;;5093663;28;20504;-77
2023/03/25 03:31:35;;;;;;;11.80;2.50;;;8.20;99.90;;;;;;5093650;28;20043;-77
2023/03/25 03:34:13;;;;;;;14.30;2.53;;;8.20;99.90;;;;;;5093728;28;20052;-77
2023/03/25 03:36:45;;;;;;;16.63;3.08;;;8.20;99.90;;;;;;5093933;28;20135;-77
2023/03/25 03:39:22;;;;;;;12.30;2.45;;;8.30;99.90;;;;;;5093658;28;20039;-77
2023/03/25 03:41:53;;;;;;;14.80;2.45;;;8.30;99.90;;;;;;5093695;28;20048;-77
2023/03/25 03:44:25;;;;;;;9.10;2.75;;;8.20;99.90;;;;;;5093639;28;20131;-77
2023/03/25 03:46:58;;;;;;;9.27;2.88;;;8.30;99.90;;;;;;5092435;28;20052;-77
2023/03/25 03:49:28;;;;;;;11.27;2.90;;;8.90;99.90;;;;;;5093692;28;20058;-77
2023/03/25 03:52:32;;;;;;;11.35;2.50;;;8.30;99.90;;;;;;5093476;28;20093;-77
2023/03/25 03:55:09;;;;;;;8.60;2.63;;;8.60;99.90;;;;;;5093302;28;20084;-76
2023/03/25 03:57:40;;;;;;;11.80;2.80;;;8.80;99.90;;;;;;5092739;28;20091;-77
2023/03/25 04:00:12;;;;;;;8.85;2.33;;;8.30;99.90;;;;;;5093466;28;20555;-77
2023/03/25 04:02:47;;;;;;;8.88;2.90;;;8.20;99.90;;;;;;5093525;28;20141;-77
2023/03/25 04:05:16;;;;;;;8.90;2.45;;;8.30;99.90;;;;;;5092432;28;20040;-77
2023/03/25 04:07:55;;;;;;;9.60;2.75;;;8.20;99.90;;;;;;5093280;28;20036;-77
2023/03/25 04:10:40;;;;;;;12.25;2.78;;;8.30;99.90;;;;;;5097561;28;20084;-77
2023/03/25 04:13:10;;;;;;;11.40;3.55;;;8.30;99.90;;;;;;5097459;28;20086;-77
2023/03/25 04:15:36;;;;;;;7.28;2.28;;;8.20;99.90;;;;;;5097222;28;20069;-77
2023/03/25 04:18:03;;;;;;;14.45;2.90;;;8.70;99.90;;;;;;5096908;28;20040;-77
2023/03/25 04:20:32;;;;;;;13.82;3.17;;;8.30;99.90;;;;;;5097124;28;20046;-77
2023/03/25 04:22:58;;;;;;;9.27;2.55;;;8.20;99.90;;;;;;5097020;28;20404;-77
2023/03/25 04:25:24;;;;;;;14.65;3.10;;;8.20;99.90;;;;;;5096853;28;20040;-77
2023/03/25 04:27:52;;;;;;;10.77;2.88;;;8.20;99.90;;;;;;5097259;28;20144;-77
2023/03/25 04:30:18;;;;;;;8.68;2.70;;;9.00;99.90;;;;;;5096955;28;20131;-77
2023/03/25 04:32:45;;;;;;;7.45;2.30;;;8.20;99.90;;;;;;5096743;28;20047;-77
2023/03/25 04:35:15;;;;;;;6.55;2.60;;;8.20;99.90;;;;;;5096837;28;20043;-77
2023/03/25 04:37:44;;;;;;;6.32;3.00;;;8.30;99.90;;;;;;5096849;28;20040;-77
2023/03/25 04:40:12;;;;;;;12.30;2.97;;;8.20;99.90;;;;;;5096698;28;20051;-77
2023/03/25 04:42:41;;;;;;;9.48;2.88;;;8.20;99.90;;;;;;5096425;28;20492;-77
2023/03/25 04:45:13;;;;;;;7.95;3.08;;;8.20;99.90;;;;;;5096811;28;20137;-77
2023/03/25 04:47:43;;;;;;;11.20;2.92;;;8.10;99.90;;;;;;5096653;28;20051;-77
2023/03/25 04:50:30;;;;;;;10.20;3.22;;;8.10;99.90;;;;;;5097034;28;20143;-77
2023/03/25 04:52:57;;;;;;;8.68;3.40;;;8.10;99.90;;;;;;5096324;28;20071;-77
2023/03/25 04:55:24;;;;;;;12.65;3.55;;;8.10;99.90;;;;;;5095060;28;20036;-77
2023/03/25 04:57:51;;;;;;;11.45;3.40;;;8.10;99.90;;;;;;5096681;28;20044;-77
2023/03/25 05:00:21;;;;;;;10.48;4.07;;;8.40;99.90;;;;;;5097062;28;20395;-77
2023/03/25 05:02:49;;;;;;;10.63;3.17;;;8.10;99.90;;;;;;5096416;28;20054;-77
2023/03/25 05:05:19;;;;;;;7.75;3.22;;;8.10;99.90;;;;;;5096505;28;20040;-77
2023/03/25 05:07:50;;;;;;;11.05;3.40;;;8.10;99.90;;;;;;5096283;28;20079;-77
2023/03/25 05:10:18;;;;;;;11.88;3.88;;;8.60;99.90;;;;;;5096288;28;20081;-77
2023/03/25 05:12:44;;;;;;;11.15;3.53;;;8.00;99.90;;;;;;5096035;28;20044;-77
2023/03/25 05:15:10;;;;;;;8.23;3.60;;;7.90;99.90;;;;;;5096145;28;20040;-77
2023/03/25 05:17:36;;;;;;;9.57;3.67;;;8.30;99.90;;;;;;5096040;28;20040;-77
2023/03/25 05:20:05;;;;;;;13.70;4.17;;;8.00;99.90;;;;;;5095763;28;20468;-77
2023/03/25 05:22:31;;;;;;;8.35;4.25;;;7.90;99.90;;;;;;5095834;28;20097;-76
2023/03/25 05:24:57;;;;;;;9.05;4.13;;;7.90;99.90;;;;;;5095792;28;20059;-76
2023/03/25 05:27:23;;;;;;;12.38;4.50;;;7.90;99.90;;;;;;5096180;28;20039;-76
2023/03/25 05:29:48;;;;;;;9.25;4.35;;;8.60;99.90;;;;;;5095821;28;20044;-77
2023/03/25 05:32:16;;;;;;;10.57;4.30;;;8.00;99.90;;;;;;5096002;28;20478;-77
2023/03/25 05:34:47;;;;;;;11.80;4.60;;;8.00;99.90;;;;;;5095853;28;20040;-77
2023/03/25 05:37:13;;;;;;;13.43;5.13;;;8.00;99.90;;;;;;5095748;28;20513;-77
2023/03/25 05:39:39;;;;;;;9.95;4.63;;;8.00;99.90;;;;;;5095318;28;20076;-77
2023/03/25 05:42:05;;;;;;;14.63;5.03;;;8.00;99.90;;;;;;5095609;28;20040;-77
2023/03/25 05:44:31;;;;;;;12.07;4.57;;;8.00;99.90;;;;;;5095622;28;20105;-77
2023/03/25 05:47:00;;;;;;;13.05;5.22;;;8.00;99.90;;;;;;5095462;28;20527;-77
2023/03/25 05:49:27;;;;;;;10.05;4.80;;;8.20;99.90;;;;;;5095083;28;20052;-77
2023/03/25 05:51:55;;;;;;;14.27;5.38;;;8.10;99.90;;;;;;5095271;28;20438;-78
2023/03/25 05:54:23;;;;;;;12.15;4.63;;;8.50;99.90;;;;;;5095056;28;20086;-78
2023/03/25 05:56:49;;;;;;;13.07;5.43;;;8.60;99.90;;;;;;5095258;28;20396;-77
2023/03/25 05:59:15;;;;;;;14.70;5.35;;;8.00;99.90;;;;;;5095165;28;20055;-78
2023/03/25 06:01:44;;;;;;;9.20;4.20;;;8.00;99.90;;;;;;5095243;28;20051;-77
2023/03/25 06:04:12;;;;;;;11.15;4.43;;;8.00;99.90;;;;;;5095017;28;20087;-77
2023/03/25 06:06:38;;;;;;;11.88;4.50;;;8.00;99.90;;;;;;5094847;28;20059;-79
2023/03/25 06:09:05;;;;;;;6.95;3.47;;;8.00;99.90;;;;;;5094849;28;20513;-81
2023/03/25 06:11:36;;;;;;;10.05;3.47;;;8.00;99.90;;;;;;5094764;28;20502;-79
2023/03/25 06:14:03;;;;;;;9.48;3.17;;;8.10;99.90;;;;;;5094774;28;20101;-77
2023/03/25 06:16:30;;;;;;;11.07;3.00;;;8.10;99.90;;;;;;5094714;28;20384;-76
2023/03/25 06:18:58;;;;;;;9.38;2.72;;;8.00;99.90;;;;;;5094863;28;20047;-76
2023/03/25 06:21:27;;;;;;;14.00;3.13;;;8.10;99.90;;;;;;5094777;28;20392;-78
2023/03/25 06:23:53;;;;;;;12.35;2.83;;;8.00;99.90;;;;;;5093401;28;20087;-81
2023/03/25 06:26:21;;;;;;;6.53;2.70;;;8.00;99.90;;;;;;5092860;28;20561;-77
2023/03/25 06:28:47;;;;;;;9.38;2.50;;;8.00;99.90;;;;;;5093357;28;20039;-78
2023/03/25 06:31:19;;;;;;;8.60;2.58;;;8.00;99.90;;;;;;5093849;28;20617;-79
2023/03/25 06:33:46;;;;;;;4.10;1.77;;;8.00;99.90;;;;;;5094437;28;20106;-79
2023/03/25 06:36:14;;;;;;;8.63;2.03;;;8.20;99.90;;;;;;5094410;28;20051;-79
2023/03/25 06:38:40;;;;;;;5.93;1.90;;;8.00;99.90;;;;;;5094578;28;20040;-79
2023/03/25 06:41:06;;;;;;;6.13;2.20;;;8.00;99.90;;;;;;5094179;28;20086;-81
2023/03/25 06:43:33;;;;;;;10.10;2.55;;;8.00;99.90;;;;;;5094384;28;20040;-80
2023/03/25 06:45:58;;;;;;;3.80;2.05;;;7.90;99.90;;;;;;5094121;28;20565;-80
2023/03/25 06:48:24;;;;;;;5.60;1.70;;;8.60;99.90;;;;;;5094285;28;20119;-79
2023/03/25 06:50:50;;;;;;;7.53;2.22;;;7.90;99.90;;;;;;5094350;28;20052;-77
2023/03/25 06:53:16;;;;;;;5.07;2.00;;;8.00;99.90;;;;;;5094559;28;20490;-76
2023/03/25 06:55:43;;;;;;;6.28;2.33;;;8.60;99.90;;;;;;5094245;28;20055;-77
2023/03/25 06:58:10;;;;;;;8.43;1.90;;;7.70;99.90;;;;;;5094073;28;20062;-78
2023/03/25 07:00:36;;;;;;;12.15;2.40;;;7.70;99.90;;;;;;5093821;28;20044;-78
2023/03/25 07:03:02;;;;;;;6.18;2.20;;;7.70;99.90;;;;;;5094037;28;20127;-81
2023/03/25 07:05:27;;;;;;;11.63;2.55;;;7.70;99.90;;;;;;5092823;28;20170;-82
2023/03/25 07:07:53;;;;;;;13.70;3.00;;;7.80;99.90;;;;;;5093966;28;20040;-79
2023/03/25 07:10:19;;;;;;;9.93;2.60;;;8.00;99.90;;;;;;5094029;28;20051;-80
2023/03/25 07:12:45;;;;;;;9.18;2.42;;;8.10;99.90;;;;;;5093981;28;20043;-76
2023/03/25 07:15:11;;;;;;;4.72;1.80;;;8.20;99.90;;;;;;5094091;28;20123;-76
2023/03/25 07:17:37;;;;;;;6.60;2.10;;;8.30;99.90;;;;;;5093840;28;20055;-76
2023/03/25 07:20:05;;;;;;;6.47;2.25;;;8.50;99.90;;;;;;5093635;28;20044;-76
2023/03/25 07:22:31;;;;;;;10.88;2.63;;;8.60;99.90;;;;;;5093385;28;20531;-77
2023/03/25 07:24:57;;;;;;;8.52;2.65;;;8.60;99.90;;;;;;5093764;28;20185;-78
2023/03/25 07:27:23;;;;;;;10.27;2.45;;;8.80;99.90;;;;;;5092474;28;20048;-78
2023/03/25 07:29:49;;;;;;;12.25;3.53;;;8.90;99.90;;;;;;5093720;28;20092;-78
2023/03/25 07:32:15;;;;;;;6.97;2.45;;;9.00;99.90;;;;;;5093211;28;20036;-79
2023/03/25 07:34:40;;;;;;;16.30;2.78;;;9.20;99.90;;;;;;5092282;28;20129;-78
2023/03/25 07:37:09;;;;;;;8.80;2.40;;;9.20;99.90;;;;;;5093677;28;20036;-78
2023/03/25 07:39:35;;;;;;;8.38;2.83;;;9.20;99.90;;;;;;5094005;28;20162;-78
2023/03/25 07:42:01;;;;;;;11.88;2.55;;;9.30;99.90;;;;;;5093571;28;20036;-77
2023/03/25 07:44:26;;;;;;;8.40;2.47;;;9.30;99.90;;;;;;5096165;28;20036;-77
2023/03/25 07:46:52;;;;;;;9.43;2.60;;;9.40;99.90;;;;;;5097738;28;20050;-78
2023/03/25 07:49:18;;;;;;;9.27;2.78;;;9.30;99.90;;;;;;5097837;28;20056;-80
2023/03/25 07:51:44;;;;;;;9.45;2.83;;;9.30;99.90;;;;;;5097660;28;20052;-79
2023/03/25 07:54:10;;;;;;;10.73;3.13;;;9.20;99.90;;;;;;5097613;28;20051;-77
2023/03/25 07:56:36;;;;;;;8.88;2.83;;;9.10;99.90;;;;;;5097590;28;20477;-78
2023/03/25 07:59:02;;;;;;;14.73;3.38;;;9.10;99.90;;;;;;5095686;28;20105;-77
2023/03/25 08:01:28;;;;;;;16.95;3.25;;;9.00;99.90;;;;;;5096907;28;20507;-76
2023/03/25 08:03:54;;;;;;;7.00;2.83;;;8.90;99.90;;;;;;5097180;28;20047;-78
2023/03/25 08:06:19;;;;;;;14.60;2.78;;;8.90;99.90;;;;;;5096970;28;20052;-77
2023/03/25 08:08:45;;;;;;;8.85;3.05;;;8.80;99.90;;;;;;5096115;28;20043;-83
2023/03/25 08:11:11;;;;;;;13.32;2.63;;;8.80;99.90;;;;;;5097168;28;20044;-77
2023/03/25 08:13:37;;;;;;;8.25;2.72;;;8.80;99.90;;;;;;5097102;28;20448;-79
2023/03/25 08:16:08;;;;;;;10.95;2.97;;;8.80;99.90;;;;;;5097226;28;20052;-80
2023/03/25 08:18:34;;;;;;;11.80;3.50;;;8.80;99.90;;;;;;5096685;28;20047;-77
2023/03/25 08:21:00;;;;;;;10.75;2.58;;;8.90;99.90;;;;;;5097027;28;20490;-80
2023/03/25 08:23:25;;;;;;;9.32;2.08;;;9.10;99.90;;;;;;5097126;28;20040;-80
2023/03/25 08:25:52;;;;;;;7.75;2.55;;;9.20;99.90;;;;;;5096817;28;20487;-80
2023/03/25 08:28:22;;;;;;;8.77;2.10;;;9.40;99.90;;;;;;5096887;28;20127;-80
2023/03/25 08:30:53;;;;;;;12.93;2.50;;;9.50;99.90;;;;;;5096963;28;20051;-82
2023/03/25 08:33:20;;;;;;;13.32;2.50;;;9.70;99.90;;;;;;5095512;28;20047;-80
2023/03/25 08:35:46;;;;;;;;;;;9.80;99.90;;;;;;5097083;28;20036;-79
2023/03/25 08:38:11;;;;;;;8.88;2.63;;;9.80;99.90;;;;;;5095438;28;20347;-78
2023/03/25 08:40:38;;;;;;;8.57;2.78;;;9.80;99.90;;;;;;5095445;28;20044;-82
2023/03/25 08:43:06;;;;;;;15.13;3.75;;;9.80;99.90;;;;;;5095607;28;20096;-79
2023/03/25 08:45:33;;;;;;;15.30;2.80;;;9.80;99.90;;;;;;5096450;28;20047;-79
2023/03/25 08:48:00;;;;;;;11.55;2.70;;;9.70;99.90;;;;;;5095873;28;20126;-80
2023/03/25 08:50:26;;;;;;;14.70;3.40;;;9.70;99.90;;;;;;5096446;28;20044;-80
2023/03/25 08:52:53;;;;;;;13.10;2.50;;;9.60;99.90;;;;;;5094929;28;20430;-80
2023/03/25 08:55:19;;;;;;;17.48;5.65;;;9.60;99.90;;;;;;5096032;28;20036;-81
2023/03/25 08:57:44;;;;;;;10.98;2.42;;;9.40;99.90;;;;;;5094953;28;20059;-78
2023/03/25 09:00:15;;;;;;;7.68;2.05;;;9.40;99.90;;;;;;5096227;28;20044;-79
2023/03/25 09:02:42;;;;;;;12.38;2.45;;;9.30;99.90;;;;;;5096244;28;20097;-79
2023/03/25 09:05:11;;;;;;;9.57;2.60;;;9.30;99.90;;;;;;5096147;28;20047;-79
2023/03/25 09:07:38;;;;;;;13.23;2.55;;;9.30;99.90;;;;;;5095986;28;20395;-84
2023/03/25 09:10:04;;;;;;;;;;;9.30;99.90;;;;;;5096545;28;20097;-79
2023/03/25 09:12:30;;;;;;;13.73;3.08;;;9.40;99.90;;;;;;5095840;28;19924;-80
2023/03/25 09:14:55;;;;;;;13.23;2.63;;;9.40;99.90;;;;;;5086891;28;20047;-81
2023/03/25 09:17:21;;;;;;;14.45;2.17;;;9.60;99.90;;;;;;5086789;28;20131;-79
2023/03/25 09:19:47;;;;;;;8.40;2.53;;;9.70;99.90;;;;;;5095970;28;20079;-81
2023/03/25 09:22:13;;;;;;;9.95;2.67;;;9.80;99.90;;;;;;5095686;28;20048;-78
2023/03/25 09:24:39;;;;;;;15.63;2.70;;;9.80;99.90;;;;;;5095973;28;20069;-82
2023/03/25 09:27:05;;;;;;;8.80;2.78;;;9.70;99.90;;;;;;5096023;28;20122;-81
2023/03/25 09:29:31;;;;;;;16.95;2.75;;;;;;;;;;5095483;28;20470;-80
2023/03/25 09:31:59;;;;;;;11.80;2.72;;;9.70;99.90;;;;;;5095269;28;20048;-79
2023/03/25 09:34:26;;;;;;;14.27;2.97;;;9.60;99.90;;;;;;5095398;28;20043;-79
2023/03/25 09:36:53;;;;;;;14.68;2.70;;;9.50;99.90;;;;;;5095445;28;20040;-79
2023/03/25 09:39:19;;;;;;;;;;;9.40;99.90;;;;;;5095922;28;20047;-79
2023/03/25 09:42:04;;;;;;;12.45;2.95;;;9.50;99.90;;;;;;5095338;28;20287;-80
2023/03/25 09:44:54;;;;;;;9.65;2.78;;;9.80;99.90;;;;;;5095207;28;20052;-80
2023/03/25 09:47:22;;;;;;;13.18;2.88;;;10.00;99.90;;;;;;5095289;28;20506;-79
2023/03/25 09:49:53;;;;;;;14.02;2.92;;;10.30;99.90;;;;;;5095276;28;20116;-80
2023/03/25 09:52:46;;;;;;;15.48;2.83;;;10.50;99.90;;;;;;5094998;28;20442;-81
2023/03/25 09:55:19;;;;;;;8.88;2.60;;;10.60;99.90;;;;;;5093961;28;20047;-80
2023/03/25 09:57:48;;;;;;;12.45;2.97;;;11.10;99.90;;;;;;5095208;28;20032;-80
2023/03/25 10:00:21;;;;;;;10.02;2.50;;;10.50;99.90;;;;;;5094150;28;20093;-81
2023/03/25 10:03:24;;;;;;;9.65;2.55;;;10.40;99.90;;;;;;5095059;28;20036;-81
2023/03/25 10:06:18;;;;;;;10.93;2.63;;;10.30;99.90;;;;;;5083420;28;20055;-81
2023/03/25 10:09:03;;;;;;;9.68;3.13;;;10.30;99.90;;;;;;5094807;28;20040;-80
2023/03/25 10:11:56;;;;;;;8.40;2.70;;;10.30;99.90;;;;;;5094812;28;20044;-81
2023/03/25 10:14:56;;;;;;;13.88;2.92;;;10.40;99.90;;;;;;5094783;28;20055;-81
2023/03/25 10:17:47;;;;;;;12.52;2.45;;;10.50;99.90;;;;;;5076839;28;20044;-81
2023/03/25 10:20:41;;;;;;;21.70;3.65;;;10.60;99.90;;;;;;5093450;28;20044;-80
2023/03/25 10:23:19;;;;;;;11.88;3.20;;;10.70;99.90;;;;;;5094666;28;20040;-84
2023/03/25 10:25:52;;;;;;;13.13;2.90;;;10.50;99.90;;;;;;5094957;28;20044;-83
2023/03/25 10:28:30;;;;;;;8.25;2.22;;;10.40;99.90;;;;;;5094546;28;20127;-81
2023/03/25 10:30:55;;;;;;;13.95;3.15;;;10.40;99.90;;;;;;5094660;28;20101;-79
2023/03/25 10:33:30;;;;;;;16.23;2.50;;;10.20;99.90;;;;;;5094623;28;20048;-86
2023/03/25 10:35:58;;;;;;;13.57;2.38;;;10.10;99.90;;;;;;5094301;28;20044;-80
2023/03/25 10:38:24;;;;;;;14.80;2.70;;;10.00;99.90;;;;;;5094567;28;20079;-82
2023/03/25 10:40:58;;;;;;;15.25;2.67;;;10.20;99.90;;;;;;5093111;28;20480;-83
2023/03/25 10:43:32;;;;;;;8.32;2.05;;;9.90;99.90;;;;;;5093262;28;20044;-83
2023/03/25 10:46:13;;;;;;;9.82;2.40;;;9.70;99.90;;;;;;5093156;28;20081;-81
2023/03/25 10:48:39;;;;;;;15.98;3.00;;;9.80;99.90;;;;;;5093204;28;20056;-81
2023/03/25 10:51:11;;;;;;;10.93;2.70;;;9.80;99.90;;;;;;5094303;28;20085;-81
2023/03/25 10:53:39;;;;;;;17.10;2.83;;;10.20;99.90;;;;;;5094711;28;20032;-81
2023/03/25 10:56:17;;;;;;;10.95;2.20;;;9.70;99.90;;;;;;5094334;28;20075;-79
2023/03/25 10:58:49;;;;;;;9.52;2.30;;;9.70;99.90;;;;;;5093969;28;20064;-79
2023/03/25 11:01:36;;;;;;;12.88;2.22;;;9.70;99.90;;;;;;5094309;28;20074;-86
2023/03/25 11:04:06;;;;;;;16.38;3.17;;;9.70;99.90;;;;;;5093477;28;20058;-84
2023/03/25 11:06:38;;;;;;;16.00;2.97;;;10.30;99.90;;;;;;5093935;28;20040;-85
2023/03/25 11:09:07;;;;;;;14.82;2.67;;;10.00;99.90;;;;;;5094574;28;20050;-83
2023/03/25 11:11:34;;;;;;;12.35;2.60;;;10.70;99.90;;;;;;5107372;28;20048;-85
2023/03/25 11:14:02;;;;;;;13.10;2.47;;;10.20;99.90;;;;;;5100746;28;20079;-85
2023/03/25 11:16:40;;;;;;;12.23;2.50;;;10.20;99.90;;;;;;5092875;28;20055;-81
2023/03/25 11:19:13;;;;;;;11.75;2.55;;;10.20;99.90;;;;;;5076494;28;20044;-83
2023/03/25 11:21:38;;;;;;;10.77;2.28;;;10.10;99.90;;;;;;5094006;28;20126;-84
2023/03/25 11:24:05;;;;;;;8.32;2.30;;;10.20;99.90;;;;;;5092677;28;20123;-85
2023/03/25 11:26:39;;;;;;;12.82;2.25;;;9.90;99.90;;;;;;5092564;28;20089;-82
2023/03/25 11:29:10;;;;;;;9.38;2.53;;;10.00;99.90;;;;;;5093781;28;20044;-84
2023/03/25 11:31:36;;;;;;;15.38;2.50;;;9.90;99.90;;;;;;5093354;28;20388;-84
2023/03/25 11:34:11;;;;;;;8.48;2.30;;;10.00;99.90;;;;;;5092491;28;20052;-84
2023/03/25 11:36:53;;;;;;;17.73;2.60;;;10.20;99.90;;;;;;5092816;28;20181;-89
2023/03/25 11:39:22;;;;;;;14.55;2.40;;;10.30;99.90;;;;;;5092985;28;20135;-81
2023/03/25 11:41:49;;;;;;;13.73;2.55;;;10.60;99.90;;;;;;5109687;28;20514;-83
2023/03/25 11:44:22;;;;;;;;;;;10.90;99.90;;;;;;5076798;28;20055;-80
2023/03/25 11:47:04;;;;;;;13.98;2.33;;;11.00;99.90;;;;;;5092950;28;19998;-81
2023/03/25 11:49:35;;;;;;;13.60;2.25;;;11.30;99.90;;;;;;5093777;28;20048;-80
2023/03/25 11:52:04;;;;;;;14.98;2.72;;;11.10;99.90;;;;;;5094453;28;20480;-89
2023/03/25 11:54:31;;;;;;;9.95;2.50;;;11.00;99.90;;;;;;5093151;28;20059;-88
2023/03/25 11:56:57;;;;;;;15.40;3.65;;;11.60;99.90;;;;;;5093253;28;20036;-87
2023/03/25 11:59:36;;;;;;;10.73;2.60;;;11.50;99.90;;;;;;5109633;28;20047;-86
2023/03/25 12:02:13;;;;;;;13.30;3.28;;;11.50;99.90;;;;;;5092537;28;20051;-85
2023/03/25 12:05:12;;;;;;;14.25;2.92;;;11.40;99.90;;;;;;5109728;28;20055;-84
2023/03/25 12:08:03;;;;;;;13.70;2.30;;;11.40;99.90;;;;;;5092517;28;20222;-84
2023/03/25 12:10:41;;;;;;;12.32;2.60;;;11.40;99.90;;;;;;5086113;28;20125;-84
2023/03/25 12:13:12;;;;;;;7.57;2.08;;;11.50;99.90;;;;;;5109776;28;20067;-84
2023/03/25 12:16:08;;;;;;;6.10;2.08;;;11.50;99.90;;;;;;5092900;28;20466;-84
2023/03/25 12:18:52;;;;;;;9.05;2.13;;;11.40;99.90;;;;;;5093562;28;20497;-91
2023/03/25 12:21:26;;;;;;;5.35;1.83;;;11.40;99.90;;;;;;5093136;28;20055;-76
2023/03/25 12:24:24;;;;;;;12.05;2.20;;;11.60;99.90;;;;;;5093043;28;20040;-78
2023/03/25 12:27:16;;;;;;;8.00;2.03;;;11.80;99.90;;;;;;5092368;28;20044;-77
2023/03/25 12:29:59;;;;;;;5.93;1.75;;;11.80;99.90;;;;;;5094622;28;20395;-84
2023/03/25 12:33:00;;;;;;;6.82;1.83;;;11.80;99.90;;;;;;5079268;28;20036;-84
2023/03/25 12:36:04;;;;;;;9.88;1.90;;;11.60;99.90;;;;;;5097053;28;20440;-77
2023/03/25 12:38:35;;;;;;;10.57;2.95;;;11.50;99.90;;;;;;5097876;28;20387;-84
2023/03/25 12:41:23;;;;;;;15.45;2.33;;;11.60;99.90;;;;;;5095980;28;20051;-85
2023/03/25 12:44:06;;;;;;;9.10;2.40;;;11.50;99.90;;;;;;5096000;28;20059;-77
2023/03/25 12:46:53;;;;;;;13.25;2.10;;;11.50;99.90;;;;;;5096740;28;20054;-79
2023/03/25 12:49:49;;;;;;;12.20;2.80;;;11.40;99.90;;;;;;5096510;28;20052;-77
2023/03/25 12:52:42;;;;;;;11.85;2.38;;;11.40;99.90;;;;;;5096553;28;20048;-77
2023/03/25 12:55:42;;;;;;;8.25;2.20;;;11.40;99.90;;;;;;5097070;28;20051;-78
2023/03/25 12:58:22;;;;;;;9.55;2.30;;;11.40;99.90;;;;;;5096856;28;20109;-77
2023/03/25 13:01:05;;;;;;;10.70;2.42;;;11.40;99.90;;;;;;5096615;28;20054;-85
2023/03/25 13:03:37;;;;;;;9.85;2.08;;;11.40;99.90;;;;;;5079134;28;20071;-87
2023/03/25 13:06:20;;;;;;;11.20;2.22;;;11.50;99.90;;;;;;5113212;28;20047;-85
2023/03/25 13:08:58;;;;;;;8.65;2.05;;;11.40;99.90;;;;;;5096301;28;20039;-84
2023/03/25 13:11:42;;;;;;;7.63;1.83;;;11.50;99.90;;;;;;5097424;28;20044;-83
2023/03/25 13:14:17;;;;;;;8.68;1.95;;;11.50;99.90;;;;;;5096713;28;20036;-83